Kayenta, Utah
Current Conditions -  °F | °C
As of 8:15 AM on Thursday 30 Oct 2014 (Local Time) from KSGU Reporting Station
Clear Clear  
Wind Chill: 46°   Ceiling: Unl
Heat Index: 46°   Visibility: 10mi
Dew Point: 18°   Wind: 0mph
Humidity: 32%   Direction: NA
Pressure: 30.21"   Gusts: NA
Location:  37.1829°N, 113.647°W
Report Text: KSGU 301415Z AUTO 00000KT 10SM CLR 08/M08 A3021 RMK AO1
Loading
Personal Weather Stations






























Interactive Weather Map
Tropical Storm Tracking
New forecast layout! Learn more

10-Day Weather Forecast

Advertisements
Track Severe Weather on mobile